createdAt,value
2016-10-25T00:00:13.078Z,69.73
2016-10-25T00:01:23.366Z,69.82
2016-10-25T00:02:33.728Z,70.01
2016-10-25T00:03:44.032Z,69.82
2016-10-25T00:04:54.548Z,69.82
2016-10-25T00:06:04.527Z,69.92
2016-10-25T00:07:14.823Z,70.01
2016-10-25T00:08:25.119Z,69.82
2016-10-25T00:09:35.401Z,70.01
2016-10-25T00:10:45.742Z,70.01
2016-10-25T00:11:56.045Z,70.11
2016-10-25T00:13:06.032Z,70.11
2016-10-25T00:14:16.021Z,70.11
2016-10-25T00:15:26.000Z,70.11
2016-10-25T00:16:35.976Z,70.3
2016-10-25T00:17:45.948Z,70.01
2016-10-25T00:18:55.940Z,70.11
2016-10-25T00:20:05.963Z,70.01
2016-10-25T00:21:15.949Z,70.11
2016-10-25T00:22:25.930Z,69.82
2016-10-25T00:23:35.912Z,70.11
2016-10-25T00:24:46.208Z,70.11
2016-10-25T00:25:56.199Z,70.01
2016-10-25T00:27:06.499Z,69.76
2016-10-25T00:28:16.499Z,69.67
2016-10-25T00:29:26.712Z,69.92
2016-10-25T00:30:37.002Z,69.57
2016-10-25T00:31:47.288Z,69.86
2016-10-25T00:32:56.983Z,69.95
2016-10-25T00:34:07.277Z,69.76
2016-10-25T00:35:17.589Z,69.95
2016-10-25T00:36:27.876Z,69.76
2016-10-25T00:37:37.252Z,69.76
2016-10-25T00:38:47.556Z,69.86
2016-10-25T00:39:57.295Z,69.67
2016-10-25T00:41:07.583Z,69.95
2016-10-25T00:42:17.559Z,69.76
2016-10-25T00:43:27.835Z,69.67
2016-10-25T00:44:37.507Z,69.95
2016-10-25T00:45:47.809Z,69.86
2016-10-25T00:46:58.115Z,69.67
2016-10-25T00:48:07.792Z,69.95
2016-10-25T00:49:18.088Z,70.24
2016-10-25T00:50:28.057Z,70.15
2016-10-25T00:51:38.055Z,70.15
2016-10-25T00:52:47.721Z,70.05
2016-10-25T00:53:57.710Z,70.05
2016-10-25T00:55:07.706Z,69.86
2016-10-25T00:56:17.994Z,69.95
2016-10-25T00:57:27.975Z,69.76
2016-10-25T00:58:38.269Z,69.95
2016-10-25T00:59:48.548Z,69.86
2016-10-25T01:00:58.837Z,69.76
2016-10-25T01:02:09.132Z,69.95
2016-10-25T01:03:19.148Z,69.95
2016-10-25T01:04:29.460Z,69.64
2016-10-25T01:05:38.815Z,69.86
2016-10-25T01:06:48.792Z,69.76
2016-10-25T01:07:58.777Z,69.54
2016-10-25T01:09:09.059Z,69.67
2016-10-25T01:10:19.360Z,69.73
2016-10-25T01:11:29.355Z,69.73
2016-10-25T01:12:39.033Z,69.86
2016-10-25T01:13:49.015Z,69.95
2016-10-25T01:14:58.680Z,69.76
2016-10-25T01:16:08.948Z,69.86
2016-10-25T01:17:18.618Z,69.95
2016-10-25T01:18:28.610Z,70.15
2016-10-25T01:19:38.900Z,69.95
2016-10-25T01:20:48.653Z,69.86
2016-10-25T01:21:58.631Z,70.24
2016-10-25T01:23:08.923Z,70.15
2016-10-25T01:24:18.934Z,69.86
2016-10-25T01:25:29.280Z,69.95
2016-10-25T01:26:39.561Z,69.76
2016-10-25T01:27:49.543Z,69.86
2016-10-25T01:28:59.850Z,69.95
2016-10-25T01:30:09.519Z,69.76
2016-10-25T01:31:19.194Z,69.86
2016-10-25T01:32:28.552Z,70.15
2016-10-25T01:33:38.857Z,69.86
2016-10-25T01:34:49.146Z,70.05
2016-10-25T01:35:59.451Z,69.92
2016-10-25T01:37:09.752Z,69.82
2016-10-25T01:38:19.771Z,69.95
2016-10-25T01:39:29.452Z,70.15
2016-10-25T01:40:39.753Z,70.05
2016-10-25T01:41:49.729Z,70.15
2016-10-25T01:42:59.392Z,69.95
2016-10-25T01:44:09.678Z,69.95
2016-10-25T01:45:19.684Z,70.15
2016-10-25T01:46:29.967Z,69.86
2016-10-25T01:47:40.254Z,70.15
2016-10-25T01:48:50.538Z,70.15
2016-10-25T01:50:00.513Z,70.15
2016-10-25T01:51:10.231Z,69.95
2016-10-25T01:52:20.513Z,70.15
2016-10-25T01:53:30.810Z,69.86
2016-10-25T01:54:41.093Z,69.95
2016-10-25T01:55:51.064Z,70.15
2016-10-25T01:57:01.340Z,69.76
2016-10-25T01:58:11.654Z,70.05
2016-10-25T01:59:21.946Z,69.95
2016-10-25T02:00:31.926Z,69.95
2016-10-25T02:01:41.912Z,70.15
2016-10-25T02:02:51.907Z,70.15
2016-10-25T02:04:02.206Z,69.86
2016-10-25T02:05:12.478Z,69.86
2016-10-25T02:06:22.471Z,70.15
2016-10-25T02:07:32.778Z,70.15
2016-10-25T02:08:42.763Z,70.15
2016-10-25T02:09:52.755Z,69.76
2016-10-25T02:11:02.147Z,70.05
2016-10-25T02:12:12.157Z,70.53
2016-10-25T02:13:22.461Z,70.62
2016-10-25T02:14:32.456Z,69.86
2016-10-25T02:15:42.137Z,70.05
2016-10-25T02:16:52.124Z,70.05
2016-10-25T02:18:01.794Z,70.15
2016-10-25T02:19:11.489Z,70.24
2016-10-25T02:20:20.855Z,70.43
2016-10-25T02:21:31.142Z,70.72
2016-10-25T02:22:40.822Z,70.68
2016-10-25T02:23:51.100Z,70.21
2016-10-25T02:25:01.086Z,70.34
2016-10-25T02:26:11.373Z,70.43
2016-10-25T02:27:21.706Z,70.72
2016-10-25T02:28:31.996Z,70.05
2016-10-25T02:29:42.294Z,69.95
2016-10-25T02:30:52.290Z,70.62
2016-10-25T02:32:02.260Z,70.72
2016-10-25T02:33:11.937Z,70.72
2016-10-25T02:34:22.220Z,70.24
2016-10-25T02:35:32.497Z,70.72
2016-10-25T02:36:42.786Z,70.24
2016-10-25T02:37:53.066Z,70.62
2016-10-25T02:39:03.096Z,70.43
2016-10-25T02:40:13.382Z,70.24
2016-10-25T02:41:23.360Z,70.15
2016-10-25T02:42:33.638Z,70.43
2016-10-25T02:43:43.933Z,70.34
2016-10-25T02:44:53.645Z,70.34
2016-10-25T02:46:03.946Z,70.34
2016-10-25T02:47:14.237Z,70.34
2016-10-25T02:48:24.221Z,70.34
2016-10-25T02:49:34.528Z,70.72
2016-10-25T02:50:44.823Z,70.81
2016-10-25T02:51:55.101Z,70.81
2016-10-25T02:53:05.080Z,70.15
2016-10-25T02:54:15.428Z,70.34
2016-10-25T02:55:25.720Z,70.34
2016-10-25T02:56:35.703Z,70.34
2016-10-25T02:57:45.702Z,70.43
2016-10-25T02:58:55.365Z,70.72
2016-10-25T03:00:05.392Z,70.62
2016-10-25T03:01:15.684Z,70.05
2016-10-25T03:32:44.331Z,67.46
2016-10-25T03:33:54.608Z,68.6
2016-10-25T03:35:04.873Z,69.46
2016-10-25T03:36:14.545Z,70.89
2016-10-25T03:37:24.863Z,71.27
2016-10-25T03:38:34.844Z,71.37
2016-10-25T03:39:44.845Z,72.07
2016-10-25T03:40:54.815Z,72.36
2016-10-25T03:42:05.086Z,72.36
2016-10-25T03:43:15.061Z,72.2
2016-10-25T03:44:25.033Z,72.39
2016-10-25T03:45:35.339Z,72.2
2016-10-25T03:46:45.012Z,72.49
2016-10-25T03:47:54.688Z,72.05
2016-10-25T03:49:05.014Z,72.33
2016-10-25T03:50:14.690Z,71.86
2016-10-25T03:51:24.983Z,72.37
2016-10-25T03:52:34.979Z,71.51
2016-10-25T03:53:44.656Z,71.7
2016-10-25T03:54:54.378Z,71.8
2016-10-25T03:56:04.399Z,71.61
2016-10-25T03:57:14.688Z,71.64
2016-10-25T03:58:24.978Z,71.26
2016-10-25T03:59:34.639Z,71.26
2016-10-25T04:00:44.606Z,71.26
2016-10-25T04:01:54.587Z,71.55
2016-10-25T04:03:04.570Z,71.64
2016-10-25T04:04:14.542Z,71.45
2016-10-25T04:05:24.819Z,71.3
2016-10-25T04:06:34.851Z,71.2
2016-10-25T04:07:44.831Z,71.26
2016-10-25T04:08:54.812Z,71.39
2016-10-25T04:10:04.834Z,71.39
2016-10-25T04:11:15.115Z,71.48
2016-10-25T04:12:25.418Z,71.58
2016-10-25T04:13:35.724Z,71.48
2016-10-25T04:14:45.785Z,71.48
2016-10-25T04:15:56.083Z,71.01
2016-10-25T04:17:06.367Z,71.11
2016-10-25T04:18:16.662Z,71.01
2016-10-25T04:19:26.971Z,71.2
2016-10-25T04:20:37.260Z,71.11
2016-10-25T04:21:47.236Z,71.01
2016-10-25T04:22:57.518Z,70.81
2016-10-25T04:24:07.185Z,71.2
2016-10-25T04:25:17.483Z,70.95
2016-10-25T04:26:27.768Z,70.76
2016-10-25T04:27:38.049Z,71.23
2016-10-25T04:28:47.760Z,71.14
2016-10-25T04:29:57.438Z,71.23
2016-10-25T04:31:07.411Z,71.23
2016-10-25T04:32:17.401Z,71.33
2016-10-25T04:33:27.699Z,71.14
2016-10-25T04:34:37.701Z,70.95
2016-10-25T04:35:47.987Z,70.85
2016-10-25T04:36:58.273Z,70.76
2016-10-25T04:38:08.559Z,70.56
2016-10-25T04:39:18.856Z,70.56
2016-10-25T04:40:28.543Z,70.95
2016-10-25T04:41:38.535Z,71.23
2016-10-25T04:42:48.523Z,71.14
2016-10-25T04:43:58.846Z,71.14
2016-10-25T04:45:09.141Z,71.23
2016-10-25T04:46:19.140Z,71.14
2016-10-25T04:47:29.433Z,71.33
2016-10-25T04:48:38.789Z,71.23
2016-10-25T04:49:49.103Z,71.14
2016-10-25T04:50:59.104Z,71.23
2016-10-25T04:52:08.786Z,71.23
2016-10-25T04:53:18.458Z,71.23
2016-10-25T04:54:28.451Z,71.23
2016-10-25T04:55:38.727Z,71.23
2016-10-25T04:56:48.416Z,70.76
2016-10-25T04:57:58.091Z,70.56
2016-10-25T04:59:07.750Z,70.66
2016-10-25T05:00:17.733Z,70.66
2016-10-25T05:01:27.719Z,70.56
2016-10-25T05:02:38.016Z,70.66
2016-10-25T05:03:48.308Z,70.47
2016-10-25T05:04:58.275Z,70.56
2016-10-25T05:06:07.952Z,71.33
2016-10-25T05:07:18.243Z,71.14
2016-10-25T05:08:28.300Z,71.33
2016-10-25T05:09:38.284Z,71.23
2016-10-25T05:10:48.582Z,70.56
2016-10-25T05:11:58.570Z,70.66
2016-10-25T05:13:08.858Z,70.76
2016-10-25T05:14:19.177Z,70.56
2016-10-25T05:15:29.459Z,70.85
2016-10-25T05:16:38.845Z,71.23
2016-10-25T05:17:49.124Z,71.23
2016-10-25T05:18:59.430Z,71.23
2016-10-25T05:20:09.717Z,71.23
2016-10-25T05:21:20.019Z,71.04
2016-10-25T05:22:30.050Z,71.04
2016-10-25T05:23:39.747Z,71.04
2016-10-25T05:24:50.024Z,71.23
2016-10-25T05:26:00.316Z,71.23
2016-10-25T05:27:10.607Z,71.33
2016-10-25T05:28:20.919Z,70.85
2016-10-25T05:29:30.896Z,71.14
2016-10-25T05:30:40.565Z,70.95
2016-10-25T05:31:50.558Z,71.23
2016-10-25T05:33:00.537Z,71.14
2016-10-25T05:34:10.498Z,71.01
2016-10-25T05:35:20.481Z,71.3
2016-10-25T05:36:30.746Z,71.3
2016-10-25T05:37:41.029Z,71.01
2016-10-25T05:38:51.322Z,71.01
2016-10-25T05:40:01.291Z,71.01
2016-10-25T05:41:11.327Z,71.01
2016-10-25T05:42:20.689Z,71.01
2016-10-25T05:43:30.971Z,70.91
2016-10-25T05:44:40.339Z,71.04
2016-10-25T05:45:50.039Z,71.11
2016-10-25T05:47:00.332Z,70.91
2016-10-25T05:48:10.624Z,71.01
2016-10-25T05:49:20.910Z,71.01
2016-10-25T05:50:31.212Z,71.01
2016-10-25T05:51:41.215Z,71.11
2016-10-25T05:52:51.204Z,70.85
2016-10-25T05:54:01.497Z,71.2
2016-10-25T05:55:11.777Z,71.2
2016-10-25T05:56:22.065Z,71.33
2016-10-25T05:57:32.387Z,71.3
2016-10-25T05:58:42.669Z,70.95
2016-10-25T05:59:52.954Z,70.85
2016-10-25T06:01:03.234Z,70.72
2016-10-25T06:02:13.515Z,71.14
2016-10-25T06:03:23.495Z,70.95
2016-10-25T06:04:33.472Z,71.04
2016-10-25T06:05:43.759Z,71.04
2016-10-25T06:06:54.087Z,70.95
2016-10-25T06:08:04.367Z,71.04
2016-10-25T06:09:14.661Z,70.91
2016-10-25T06:10:24.675Z,71.23
2016-10-25T06:11:34.337Z,71.11
2016-10-25T06:12:43.999Z,71.3
2016-10-25T06:13:54.288Z,71.2
2016-10-25T06:15:04.258Z,71.11
2016-10-25T06:16:14.224Z,71.2
2016-10-25T06:17:24.206Z,71.2
2016-10-25T06:18:34.481Z,71.2
2016-10-25T06:19:44.144Z,71.2
2016-10-25T06:20:54.125Z,71.23
2016-10-25T06:22:03.794Z,71.2
2016-10-25T06:23:14.080Z,71.2
2016-10-25T06:24:24.380Z,71.01
2016-10-25T06:25:34.662Z,71.11
2016-10-25T06:26:44.659Z,71.01
2016-10-25T06:27:54.621Z,71.11
2016-10-25T06:29:04.907Z,71.01
2016-10-25T06:30:15.197Z,70.91
2016-10-25T06:31:25.171Z,70.91
2016-10-25T06:32:34.540Z,71.2
2016-10-25T06:33:44.814Z,71.48
2016-10-25T06:34:55.107Z,71.39
2016-10-25T06:36:05.392Z,71.58
2016-10-25T06:37:14.759Z,71.39
2016-10-25T06:38:25.052Z,71.3
2016-10-25T06:39:34.724Z,71.48
2016-10-25T06:40:44.094Z,71.48
2016-10-25T06:41:54.381Z,71.39
2016-10-25T06:43:04.053Z,71.39
2016-10-25T06:44:13.736Z,71.58
2016-10-25T06:45:23.412Z,71.48
2016-10-25T06:46:33.432Z,71.48
2016-10-25T06:47:43.111Z,71.11
2016-10-25T06:48:53.111Z,71.01
2016-10-25T06:50:02.787Z,70.91
2016-10-25T06:51:12.785Z,70.91
2016-10-25T06:52:22.771Z,71.3
2016-10-25T06:53:32.762Z,70.53
2016-10-25T06:54:42.803Z,70.43
2016-10-25T06:55:53.407Z,70.62
2016-10-25T06:57:03.423Z,70.81
2016-10-25T06:58:13.094Z,70.72
2016-10-25T06:59:23.444Z,70.34
2016-10-25T07:00:33.714Z,69.95
2016-10-25T07:01:43.996Z,69.95
2016-10-25T07:02:54.296Z,70.28
2016-10-25T07:04:04.272Z,69.7
2016-10-25T07:05:14.564Z,69.42
2016-10-25T07:06:24.527Z,69.93
2016-10-25T07:07:33.890Z,69.8
2016-10-25T07:08:43.907Z,69.89
2016-10-25T07:09:54.217Z,69.99
2016-10-25T07:11:04.504Z,70.09
2016-10-25T07:12:14.185Z,70.66
2016-10-25T07:13:24.172Z,70.56
2016-10-25T07:14:34.461Z,70.28
2016-10-25T07:15:44.791Z,70.56
2016-10-25T07:16:54.770Z,70.66
2016-10-25T07:18:04.825Z,70.56
2016-10-25T07:19:15.125Z,70.56
2016-10-25T07:20:25.416Z,71.14
2016-10-25T07:21:35.758Z,71.2
2016-10-25T07:22:46.057Z,71.23
2016-10-25T07:23:56.332Z,71.14
2016-10-25T07:25:06.623Z,71.23
2016-10-25T07:26:16.606Z,70.28
2016-10-25T07:27:26.289Z,70.18
2016-10-25T07:28:36.589Z,69.7
2016-10-25T07:29:46.569Z,69.7
2016-10-25T07:30:56.553Z,69.54
2016-10-25T07:32:06.547Z,69.17
2016-10-25T07:33:16.514Z,69.58
2016-10-25T07:34:26.804Z,69.29
2016-10-25T07:35:37.090Z,68.81
2016-10-25T07:36:47.086Z,69.74
2016-10-25T07:37:57.069Z,70.03
2016-10-25T07:39:07.045Z,69.83
2016-10-25T07:40:17.337Z,70.12
2016-10-25T07:41:26.700Z,69.83
2016-10-25T07:42:36.379Z,70.21
2016-10-25T07:43:46.691Z,70.03
2016-10-25T07:44:56.984Z,70.03
2016-10-25T07:46:07.276Z,70.03
2016-10-25T07:47:17.262Z,70.21
2016-10-25T07:48:27.559Z,70.12
2016-10-25T07:49:37.840Z,70.12
2016-10-25T07:50:47.526Z,70.21
2016-10-25T07:51:56.879Z,69.48
2016-10-25T07:53:06.871Z,69.68
2016-10-25T07:54:17.176Z,68.91
2016-10-25T07:55:27.164Z,69.48
2016-10-25T07:56:37.455Z,69.01
2016-10-25T07:57:47.747Z,69.23
2016-10-25T07:58:57.748Z,69.13
2016-10-25T08:00:08.026Z,69.52
2016-10-25T08:01:18.001Z,69.62
2016-10-25T08:02:27.968Z,68.75
2016-10-25T08:03:37.960Z,68.88
2016-10-25T08:04:48.293Z,68.59
2016-10-25T08:05:58.610Z,68.79
2016-10-25T08:07:08.916Z,68.5
2016-10-25T08:08:19.213Z,68.34
2016-10-25T08:09:29.509Z,68.34
2016-10-25T08:10:39.800Z,68.34
2016-10-25T08:11:49.492Z,67.96
2016-10-25T08:12:59.774Z,67.67
2016-10-25T08:14:10.062Z,68.82
2016-10-25T08:15:20.352Z,69.49
2016-10-25T08:16:30.672Z,69.59
2016-10-25T08:17:40.991Z,69.01
2016-10-25T08:18:50.430Z,68.73
2016-10-25T08:20:00.709Z,68.63
2016-10-25T08:21:11.010Z,68.53
2016-10-25T08:22:20.680Z,68.18
2016-10-25T08:23:30.969Z,67.7
2016-10-25T08:24:40.967Z,67.99
2016-10-25T08:25:51.258Z,67.64
2016-10-25T08:27:01.548Z,67.64
2016-10-25T08:28:11.520Z,67.54
2016-10-25T08:29:21.820Z,67.38
2016-10-25T08:30:32.104Z,67.48
2016-10-25T08:31:42.081Z,67.68
2016-10-25T08:32:51.791Z,68.15
2016-10-25T08:34:02.099Z,67.42
2016-10-25T08:35:12.079Z,67.68
2016-10-25T08:36:22.367Z,68.19
2016-10-25T08:37:32.359Z,68.19
2016-10-25T08:38:42.337Z,67.51
2016-10-25T08:39:52.632Z,67.22
2016-10-25T08:41:02.919Z,67.35
2016-10-25T08:42:12.281Z,67.26
2016-10-25T08:43:22.265Z,67.45
2016-10-25T08:44:32.555Z,66.71
2016-10-25T08:45:42.538Z,66.36
2016-10-25T08:46:52.535Z,65.63
2016-10-25T08:48:02.520Z,65.63
2016-10-25T08:49:12.536Z,65.56
2016-10-25T08:50:22.533Z,65.69
2016-10-25T08:51:32.849Z,65.59
2016-10-25T08:52:43.168Z,65.69
2016-10-25T08:53:53.178Z,66.66
2016-10-25T08:55:03.470Z,67.04
2016-10-25T08:56:13.776Z,67.4
2016-10-25T08:57:24.069Z,67.36
2016-10-25T08:58:34.069Z,68.23
2016-10-25T08:59:44.362Z,68.29
2016-10-25T09:00:53.724Z,68.58
2016-10-25T09:02:04.021Z,68.19
2016-10-25T09:03:14.313Z,67.74
2016-10-25T09:04:24.295Z,67.84
2016-10-25T09:05:33.660Z,68.13
2016-10-25T09:06:43.952Z,68.23
2016-10-25T09:07:53.941Z,67.65
2016-10-25T09:09:03.619Z,67.46
2016-10-25T09:10:13.334Z,67.55
2016-10-25T09:11:23.321Z,67.26
2016-10-25T09:12:33.309Z,67.4
2016-10-25T09:13:43.626Z,67.04
2016-10-25T09:14:53.627Z,67.23
2016-10-25T09:16:03.946Z,66.75
2016-10-25T09:17:13.926Z,66.85
2016-10-25T09:18:23.604Z,66.11
2016-10-25T09:19:33.285Z,66.05
2016-10-25T09:20:43.314Z,65.56
2016-10-25T09:21:52.988Z,65.5
2016-10-25T09:23:03.275Z,65.3
2016-10-25T09:24:13.277Z,64.95
2016-10-25T09:25:23.558Z,65.53
2016-10-25T09:26:33.869Z,65.82
2016-10-25T09:27:44.162Z,66.01
2016-10-25T09:28:54.152Z,66.2
2016-10-25T09:30:04.147Z,66.05
2016-10-25T09:31:13.830Z,66.05
2016-10-25T09:32:24.140Z,66.24
2016-10-25T09:33:34.156Z,66.27
2016-10-25T09:34:43.843Z,67.4
2016-10-25T09:35:53.810Z,67.59
2016-10-25T09:37:04.095Z,67.56
2016-10-25T09:38:13.787Z,68.33
2016-10-25T09:39:23.468Z,67.94
2016-10-25T09:40:33.785Z,67.66
2016-10-25T09:41:43.787Z,67.66
2016-10-25T09:42:53.786Z,67.52
2016-10-25T09:44:04.110Z,67.75
2016-10-25T09:45:14.092Z,67.85
2016-10-25T09:46:27.419Z,67.75
2016-10-25T09:47:40.046Z,67.91
2016-10-25T09:48:54.910Z,68.49
2016-10-25T09:50:12.010Z,68.2
2016-10-25T09:51:27.073Z,68.01
2016-10-25T09:52:38.083Z,67.62
2016-10-25T09:53:48.087Z,68.59
2016-10-25T09:54:57.790Z,67.62
2016-10-25T09:56:08.100Z,67.91
2016-10-25T09:57:18.088Z,67.75
2016-10-25T09:58:28.446Z,67.85
2016-10-25T09:59:38.774Z,67.85
2016-10-25T10:00:48.776Z,67.85
2016-10-25T10:01:58.761Z,68.24
2016-10-25T10:03:09.088Z,68.04
2016-10-25T10:04:19.396Z,67.75
2016-10-25T10:05:29.701Z,67.94
2016-10-25T10:06:40.003Z,67.85
2016-10-25T10:07:50.325Z,67.94
2016-10-25T10:09:00.331Z,67.94
2016-10-25T10:10:10.019Z,67.66
2016-10-25T10:11:20.024Z,67.98
2016-10-25T10:12:30.316Z,67.4
2016-10-25T10:13:40.319Z,67.79
2016-10-25T10:14:50.623Z,67.4
2016-10-25T10:16:00.916Z,67.98
2016-10-25T10:17:10.958Z,67.88
2016-10-25T10:18:21.263Z,68.37
2016-10-25T10:19:31.273Z,68.17
2016-10-25T10:20:41.582Z,67.75
2016-10-25T10:21:51.892Z,67.75
2016-10-25T10:23:01.882Z,67.66
2016-10-25T10:24:12.197Z,67.94
2016-10-25T10:25:22.515Z,67.66
2016-10-25T10:26:32.498Z,67.69
2016-10-25T10:27:42.214Z,67.01
2016-10-25T10:28:52.562Z,67.49
2016-10-25T10:30:02.563Z,67.01
2016-10-25T10:31:12.857Z,66.95
2016-10-25T10:32:22.874Z,66.95
2016-10-25T10:33:33.188Z,66.95
2016-10-25T10:34:43.498Z,67.14
2016-10-25T10:35:53.496Z,66.85
2016-10-25T10:37:03.830Z,67.43
2016-10-25T10:38:28.122Z,67.63
2016-10-25T10:39:38.420Z,68.17
2016-10-25T10:40:48.403Z,68.08
2016-10-25T10:41:58.699Z,68.66
2016-10-25T10:43:09.020Z,68.33
2016-10-25T10:44:19.339Z,68.59
2016-10-25T10:45:29.029Z,68.59
2016-10-25T10:46:39.374Z,69.36
2016-10-25T10:47:49.359Z,69.17
2016-10-25T10:48:59.339Z,69.36
2016-10-25T10:50:09.055Z,69.17
2016-10-25T10:51:18.442Z,68.94
2016-10-25T10:52:28.464Z,69.13
2016-10-25T10:53:38.155Z,68.94
2016-10-25T10:54:48.162Z,68.68
2016-10-25T10:55:57.891Z,68.65
2016-10-25T10:57:07.595Z,68.68
2016-10-25T10:58:17.909Z,68.65
2016-10-25T10:59:27.600Z,69.13
2016-10-25T11:00:37.931Z,69.32
2016-10-25T11:01:48.223Z,69.23
2016-10-25T11:02:58.519Z,69.1
2016-10-25T11:04:08.508Z,68.91
2016-10-25T11:05:18.814Z,68.75
2016-10-25T11:06:29.346Z,69.1
2016-10-25T11:07:39.345Z,68.55
2016-10-25T11:08:49.637Z,68.36
2016-10-25T11:09:59.946Z,68.55
2016-10-25T11:11:10.262Z,68.46
2016-10-25T11:12:20.259Z,68.52
2016-10-25T11:13:30.580Z,68.94
2016-10-25T11:14:40.871Z,68.91
2016-10-25T11:15:50.604Z,68.43
2016-10-25T11:16:59.998Z,68.62
2016-10-25T11:18:10.303Z,67.94
2016-10-25T11:19:20.001Z,68.13
2016-10-25T11:20:29.678Z,68.26
2016-10-25T11:21:39.671Z,68.17
2016-10-25T11:22:49.351Z,68.36
2016-10-25T11:23:59.349Z,68.36
2016-10-25T11:25:09.320Z,68.17
2016-10-25T11:26:19.303Z,67.88
2016-10-25T11:27:29.276Z,68.36
2016-10-25T11:28:39.571Z,68.4
2016-10-25T11:29:49.867Z,68.26
2016-10-25T11:30:59.857Z,68.55
2016-10-25T11:32:09.842Z,68.65
2016-10-25T11:33:20.148Z,68.75
2016-10-25T11:34:29.831Z,68.75
2016-10-25T11:35:39.821Z,68.55
2016-10-25T11:36:50.109Z,68.65
2016-10-25T11:38:00.419Z,68.75
2016-10-25T11:39:10.720Z,68.84
2016-10-25T11:40:21.013Z,68.84
2016-10-25T11:41:31.019Z,68.75
2016-10-25T11:42:41.310Z,68.84
2016-10-25T11:43:51.293Z,68.84
2016-10-25T11:45:01.585Z,69.23
2016-10-25T11:46:11.896Z,69.32
2016-10-25T11:47:22.190Z,69.13
2016-10-25T11:48:32.498Z,69.13
2016-10-25T11:49:42.488Z,69.13
2016-10-25T11:50:52.807Z,69.29
2016-10-25T11:52:02.795Z,69.39
2016-10-25T11:53:13.092Z,69.1
2016-10-25T11:54:22.503Z,69.1
2016-10-25T11:55:32.789Z,69.1
2016-10-25T11:56:42.777Z,68.81
2016-10-25T11:57:52.765Z,68.91
2016-10-25T11:59:02.745Z,68.91
2016-10-25T12:00:13.028Z,68.91
2016-10-25T12:01:23.023Z,69.2
2016-10-25T12:02:33.347Z,69.29
2016-10-25T12:03:43.067Z,69.39
2016-10-25T12:04:53.071Z,69
2016-10-25T12:06:03.405Z,69.16
2016-10-25T12:07:13.767Z,69.45
2016-10-25T12:08:23.744Z,69.26
2016-10-25T12:09:34.052Z,69.16
2016-10-25T12:10:44.100Z,69.45
2016-10-25T12:11:54.447Z,69.45
2016-10-25T12:13:04.776Z,69.29
2016-10-25T12:14:15.118Z,68.87
2016-10-25T12:15:25.474Z,68.87
2016-10-25T12:16:35.530Z,69.07
2016-10-25T12:17:45.771Z,69.1
2016-10-25T12:18:56.148Z,69.1
2016-10-25T12:20:06.192Z,69
2016-10-25T12:21:16.545Z,68.81
2016-10-25T12:22:26.989Z,68.26
2016-10-25T12:23:37.317Z,68.46
2016-10-25T12:24:47.656Z,67.97
2016-10-25T12:25:57.696Z,67.33
2016-10-25T12:27:07.731Z,68.49
2016-10-25T12:28:18.069Z,68.01
2016-10-25T12:29:27.782Z,67.72
2016-10-25T12:30:37.800Z,67.91
2016-10-25T12:31:48.129Z,67.75
2016-10-25T12:32:58.458Z,68.52
2016-10-25T12:34:08.504Z,67.66
2016-10-25T12:35:18.885Z,67.46
2016-10-25T12:36:28.897Z,68.04
2016-10-25T12:37:38.040Z,68.33
2016-10-25T12:38:47.419Z,68.52
2016-10-25T12:39:57.108Z,68.52
2016-10-25T12:41:07.475Z,68.43
2016-10-25T12:42:17.478Z,68.24
2016-10-25T12:43:27.510Z,68.33
2016-10-25T12:44:37.816Z,68.33
2016-10-25T12:45:47.816Z,68.01
2016-10-25T12:46:58.172Z,68.59
2016-10-25T12:48:07.882Z,68.24
2016-10-25T12:49:18.178Z,68.01
2016-10-25T12:50:28.195Z,68.24
2016-10-25T12:51:38.505Z,68.43
2016-10-25T12:52:48.815Z,68.43
2016-10-25T12:53:59.119Z,68.43
2016-10-25T12:55:09.168Z,68.33
2016-10-25T12:56:18.866Z,68.14
2016-10-25T12:57:28.858Z,68.62
2016-10-25T12:58:39.200Z,69.01
2016-10-25T12:59:49.519Z,68.82
2016-10-25T13:00:59.555Z,68.91
2016-10-25T13:02:09.987Z,68.91
2016-10-25T13:03:20.289Z,68.72
2016-10-25T13:04:30.601Z,68.82
2016-10-25T13:05:40.622Z,68.91
2016-10-25T13:06:50.874Z,69.01
2016-10-25T13:08:01.194Z,68.82
2016-10-25T13:09:11.500Z,68.82
2016-10-25T13:10:21.832Z,69.2
2016-10-25T13:11:32.131Z,69.01
2016-10-25T13:12:41.831Z,68.72
2016-10-25T13:13:52.170Z,69.01
2016-10-25T13:15:02.171Z,68.91
2016-10-25T13:16:12.489Z,68.91
2016-10-25T13:17:22.805Z,68.72
2016-10-25T13:18:33.113Z,68.72
2016-10-25T13:19:43.108Z,68.82
2016-10-25T13:20:53.433Z,68.82
2016-10-25T13:22:03.737Z,69.3
2016-10-25T13:23:13.787Z,69.4
2016-10-25T13:24:23.789Z,69.1
2016-10-25T13:25:34.171Z,69.17
2016-10-25T13:26:44.506Z,69.49
2016-10-25T13:27:54.181Z,68.78
2016-10-25T13:29:04.170Z,69.26
2016-10-25T13:30:14.492Z,69.26
2016-10-25T13:31:24.509Z,69.46
2016-10-25T13:32:34.499Z,69.36
2016-10-25T13:33:44.512Z,69.36
2016-10-25T13:34:54.197Z,69.36
2016-10-25T13:36:04.528Z,69.36
2016-10-25T13:37:14.545Z,69.36
2016-10-25T13:38:24.850Z,69.65
2016-10-25T13:39:35.176Z,69.84
2016-10-25T13:40:44.873Z,69.65
2016-10-25T13:41:54.879Z,69.46
2016-10-25T13:43:04.884Z,69.26
2016-10-25T13:44:15.196Z,69.26
2016-10-25T13:45:25.191Z,69.26
2016-10-25T13:46:35.483Z,68.94
2016-10-25T13:47:45.515Z,69.36
2016-10-25T13:48:55.528Z,69.46
2016-10-25T13:50:05.212Z,69.56
2016-10-25T13:51:15.514Z,69.36
2016-10-25T13:52:25.511Z,69.52
2016-10-25T13:53:35.218Z,69.32
2016-10-25T13:54:45.516Z,69.65
2016-10-25T13:55:55.211Z,69.32
2016-10-25T13:57:05.541Z,69.9
2016-10-25T13:58:15.849Z,69.62
2016-10-25T13:59:25.892Z,70.1
2016-10-25T14:00:36.210Z,70
2016-10-25T14:01:46.514Z,69.52
2016-10-25T14:02:56.823Z,69.81
2016-10-25T14:04:07.294Z,69.81
2016-10-25T14:05:17.603Z,69.62
2016-10-25T14:06:27.294Z,69.71
2016-10-25T14:07:37.623Z,70.06
2016-10-25T14:08:47.614Z,69.97
2016-10-25T14:09:56.701Z,69.39
2016-10-25T14:11:06.113Z,69.97
2016-10-25T14:12:16.411Z,69.97
2016-10-25T14:13:26.746Z,69.97
2016-10-25T14:14:37.079Z,69.87
2016-10-25T14:15:47.105Z,69.29
2016-10-25T14:16:56.800Z,69.87
2016-10-25T14:18:06.812Z,69.39
2016-10-25T14:19:16.809Z,69.87
2016-10-25T14:20:26.197Z,70.06
2016-10-25T14:21:36.538Z,70.06
2016-10-25T14:22:46.833Z,70.45
2016-10-25T14:23:57.161Z,70.26
2016-10-25T14:25:07.482Z,70.26
2016-10-25T14:26:17.481Z,69.97
2016-10-25T14:27:27.487Z,70.16
2016-10-25T14:28:37.464Z,70.03
2016-10-25T14:29:47.749Z,70.32
2016-10-25T14:30:58.056Z,70.61
2016-10-25T14:32:08.052Z,70.7
2016-10-25T14:33:18.371Z,70.32
2016-10-25T14:34:28.384Z,70.42
2016-10-25T14:35:38.687Z,70.57
2016-10-25T14:36:48.689Z,70.67
2016-10-25T14:37:58.998Z,71.25
2016-10-25T14:39:09.303Z,70.86
2016-10-25T14:40:19.311Z,71.34
2016-10-25T14:41:29.292Z,71.02
2016-10-25T14:42:39.589Z,70.83
2016-10-25T14:43:49.915Z,70.83
2016-10-25T14:45:00.250Z,70.73
2016-10-25T14:46:10.228Z,70.73
2016-10-25T14:47:19.620Z,70.92
2016-10-25T14:48:29.607Z,70.64
2016-10-25T14:49:39.603Z,70.92
2016-10-25T14:50:49.910Z,70.83
2016-10-25T14:51:59.922Z,70.83
2016-10-25T14:53:09.917Z,70.6
2016-10-25T14:54:19.925Z,70.98
2016-10-25T14:55:30.222Z,70.7
2016-10-25T14:56:40.215Z,71.28
2016-10-25T14:57:50.527Z,70.79
2016-10-25T14:59:00.873Z,70.6
2016-10-25T15:00:10.575Z,70.6
2016-10-25T15:01:20.596Z,70.6
2016-10-25T15:02:30.575Z,71.18
2016-10-25T15:03:40.569Z,70.98
2016-10-25T15:04:50.899Z,70.95
2016-10-25T15:06:00.580Z,71.53
2016-10-25T15:07:10.595Z,71.43
2016-10-25T15:08:20.603Z,71.53
2016-10-25T15:09:30.906Z,71.34
2016-10-25T15:10:40.619Z,70.86
2016-10-25T15:11:50.920Z,70.76
2016-10-25T15:13:01.229Z,70.86
2016-10-25T15:14:11.249Z,70.66
2016-10-25T15:15:21.240Z,70.76
2016-10-25T15:16:31.256Z,71.2
2016-10-25T15:17:41.553Z,70.82
2016-10-25T15:18:51.861Z,71.01
2016-10-25T15:20:02.198Z,71.01
2016-10-25T15:21:12.528Z,70.82
2016-10-25T15:22:22.860Z,70.72
2016-10-25T15:23:32.876Z,70.72
2016-10-25T15:24:42.871Z,71.11
2016-10-25T15:25:53.171Z,70.92
2016-10-25T15:27:03.482Z,70.92
2016-10-25T15:28:13.519Z,70.82
2016-10-25T15:29:23.841Z,71.08
2016-10-25T15:30:34.148Z,71.49
2016-10-25T15:31:44.157Z,72.03
2016-10-25T15:32:54.158Z,72.03
2016-10-25T15:34:04.496Z,71.61
2016-10-25T15:35:14.814Z,71.71
2016-10-25T15:36:24.504Z,72.58